sensor_id;sensor_type;location;lat;lon;timestamp;P1;durP1;ratioP1;P2;durP2;ratioP2
46363;SDS011;32071;49.036;9.344;2022-08-03T00:00:01;4.50;;;4.10;;
46363;SDS011;32071;49.036;9.344;2022-08-03T00:02:26;4.63;;;4.33;;
46363;SDS011;32071;49.036;9.344;2022-08-03T00:04:52;4.43;;;4.00;;
46363;SDS011;32071;49.036;9.344;2022-08-03T00:07:17;4.30;;;3.90;;
46363;SDS011;32071;49.036;9.344;2022-08-03T00:09:43;4.50;;;4.03;;
46363;SDS011;32071;49.036;9.344;2022-08-03T00:12:09;4.63;;;4.27;;
46363;SDS011;32071;49.036;9.344;2022-08-03T00:14:34;4.60;;;4.20;;
46363;SDS011;32071;49.036;9.344;2022-08-03T00:17:00;5.07;;;4.67;;
46363;SDS011;32071;49.036;9.344;2022-08-03T00:19:25;4.47;;;4.07;;
46363;SDS011;32071;49.036;9.344;2022-08-03T00:21:52;5.03;;;4.43;;
46363;SDS011;32071;49.036;9.344;2022-08-03T00:24:17;4.53;;;4.13;;
46363;SDS011;32071;49.036;9.344;2022-08-03T00:26:43;6.40;;;4.43;;
46363;SDS011;32071;49.036;9.344;2022-08-03T00:29:08;4.80;;;4.10;;
46363;SDS011;32071;49.036;9.344;2022-08-03T00:31:34;4.33;;;3.97;;
46363;SDS011;32071;49.036;9.344;2022-08-03T00:33:59;4.90;;;4.50;;
46363;SDS011;32071;49.036;9.344;2022-08-03T00:36:25;4.33;;;3.93;;
46363;SDS011;32071;49.036;9.344;2022-08-03T00:38:51;4.77;;;4.37;;
46363;SDS011;32071;49.036;9.344;2022-08-03T00:41:17;4.63;;;4.23;;
46363;SDS011;32071;49.036;9.344;2022-08-03T00:43:43;6.83;;;4.70;;
46363;SDS011;32071;49.036;9.344;2022-08-03T00:46:08;4.00;;;3.70;;
46363;SDS011;32071;49.036;9.344;2022-08-03T00:48:34;7.77;;;5.10;;
46363;SDS011;32071;49.036;9.344;2022-08-03T00:51:00;5.57;;;4.37;;
46363;SDS011;32071;49.036;9.344;2022-08-03T00:53:26;4.60;;;3.97;;
46363;SDS011;32071;49.036;9.344;2022-08-03T00:55:51;4.93;;;4.53;;
46363;SDS011;32071;49.036;9.344;2022-08-03T00:58:17;4.70;;;4.30;;
46363;SDS011;32071;49.036;9.344;2022-08-03T01:00:43;4.60;;;4.20;;
46363;SDS011;32071;49.036;9.344;2022-08-03T01:03:09;5.23;;;4.70;;
46363;SDS011;32071;49.036;9.344;2022-08-03T01:13:30;5.13;;;4.73;;
46363;SDS011;32071;49.036;9.344;2022-08-03T01:16:05;4.80;;;4.40;;
46363;SDS011;32071;49.036;9.344;2022-08-03T01:18:40;4.90;;;4.50;;
46363;SDS011;32071;49.036;9.344;2022-08-03T01:21:18;5.03;;;4.53;;
46363;SDS011;32071;49.036;9.344;2022-08-03T01:24:04;4.50;;;4.20;;
46363;SDS011;32071;49.036;9.344;2022-08-03T01:26:54;4.83;;;4.43;;
46363;SDS011;32071;49.036;9.344;2022-08-03T01:29:33;5.80;;;4.27;;
46363;SDS011;32071;49.036;9.344;2022-08-03T01:32:10;4.90;;;4.50;;
46363;SDS011;32071;49.036;9.344;2022-08-03T01:34:46;4.50;;;4.10;;
46363;SDS011;32071;49.036;9.344;2022-08-03T01:37:17;5.20;;;4.70;;
46363;SDS011;32071;49.036;9.344;2022-08-03T01:39:48;4.80;;;4.40;;
46363;SDS011;32071;49.036;9.344;2022-08-03T01:42:17;4.10;;;3.77;;
46363;SDS011;32071;49.036;9.344;2022-08-03T01:44:44;5.80;;;4.57;;
46363;SDS011;32071;49.036;9.344;2022-08-03T01:47:12;5.70;;;4.57;;
46363;SDS011;32071;49.036;9.344;2022-08-03T01:49:42;4.77;;;4.37;;
46363;SDS011;32071;49.036;9.344;2022-08-03T01:52:09;7.70;;;5.03;;
46363;SDS011;32071;49.036;9.344;2022-08-03T01:54:40;4.73;;;4.33;;
46363;SDS011;32071;49.036;9.344;2022-08-03T01:57:09;6.40;;;4.40;;
46363;SDS011;32071;49.036;9.344;2022-08-03T01:59:35;5.00;;;4.60;;
46363;SDS011;32071;49.036;9.344;2022-08-03T02:02:03;4.60;;;4.20;;
46363;SDS011;32071;49.036;9.344;2022-08-03T02:04:29;5.03;;;4.63;;
46363;SDS011;32071;49.036;9.344;2022-08-03T02:06:56;4.63;;;4.20;;
46363;SDS011;32071;49.036;9.344;2022-08-03T02:09:23;5.40;;;4.90;;
46363;SDS011;32071;49.036;9.344;2022-08-03T02:11:51;5.37;;;4.87;;
46363;SDS011;32071;49.036;9.344;2022-08-03T02:14:18;4.60;;;4.20;;
46363;SDS011;32071;49.036;9.344;2022-08-03T02:16:46;5.10;;;4.60;;
46363;SDS011;32071;49.036;9.344;2022-08-03T02:19:13;4.90;;;4.50;;
46363;SDS011;32071;49.036;9.344;2022-08-03T02:21:39;4.93;;;4.43;;
46363;SDS011;32071;49.036;9.344;2022-08-03T02:24:07;5.17;;;4.67;;
46363;SDS011;32071;49.036;9.344;2022-08-03T02:26:33;4.90;;;4.50;;
46363;SDS011;32071;49.036;9.344;2022-08-03T02:29:04;5.27;;;4.77;;
46363;SDS011;32071;49.036;9.344;2022-08-03T02:31:40;4.60;;;4.30;;
46363;SDS011;32071;49.036;9.344;2022-08-03T02:34:09;8.23;;;4.70;;
46363;SDS011;32071;49.036;9.344;2022-08-03T02:36:38;4.73;;;4.23;;
46363;SDS011;32071;49.036;9.344;2022-08-03T02:39:05;5.20;;;4.70;;
46363;SDS011;32071;49.036;9.344;2022-08-03T02:41:41;4.63;;;4.23;;
46363;SDS011;32071;49.036;9.344;2022-08-03T02:44:10;5.03;;;4.53;;
46363;SDS011;32071;49.036;9.344;2022-08-03T02:46:37;5.20;;;4.70;;
46363;SDS011;32071;49.036;9.344;2022-08-03T02:49:06;5.47;;;5.00;;
46363;SDS011;32071;49.036;9.344;2022-08-03T02:51:34;5.57;;;5.07;;
46363;SDS011;32071;49.036;9.344;2022-08-03T02:54:03;4.80;;;4.40;;
46363;SDS011;32071;49.036;9.344;2022-08-03T02:56:30;4.80;;;4.00;;
46363;SDS011;32071;49.036;9.344;2022-08-03T02:58:57;5.17;;;4.73;;
46363;SDS011;32071;49.036;9.344;2022-08-03T03:01:24;5.43;;;4.47;;
46363;SDS011;32071;49.036;9.344;2022-08-03T03:03:52;4.50;;;4.10;;
46363;SDS011;32071;49.036;9.344;2022-08-03T03:06:19;5.40;;;4.90;;
46363;SDS011;32071;49.036;9.344;2022-08-03T03:08:46;5.47;;;4.80;;
46363;SDS011;32071;49.036;9.344;2022-08-03T03:11:13;5.00;;;4.60;;
46363;SDS011;32071;49.036;9.344;2022-08-03T03:13:42;4.77;;;4.37;;
46363;SDS011;32071;49.036;9.344;2022-08-03T03:16:10;4.93;;;4.53;;
46363;SDS011;32071;49.036;9.344;2022-08-03T03:18:38;4.33;;;4.03;;
46363;SDS011;32071;49.036;9.344;2022-08-03T03:21:04;4.70;;;3.87;;
46363;SDS011;32071;49.036;9.344;2022-08-03T03:23:37;4.90;;;4.50;;
46363;SDS011;32071;49.036;9.344;2022-08-03T03:26:05;4.67;;;4.27;;
46363;SDS011;32071;49.036;9.344;2022-08-03T03:28:33;4.20;;;3.83;;
46363;SDS011;32071;49.036;9.344;2022-08-03T03:31:03;5.80;;;4.67;;
46363;SDS011;32071;49.036;9.344;2022-08-03T03:33:30;5.70;;;4.60;;
46363;SDS011;32071;49.036;9.344;2022-08-03T03:35:57;4.67;;;4.27;;
46363;SDS011;32071;49.036;9.344;2022-08-03T03:38:22;4.70;;;4.30;;
46363;SDS011;32071;49.036;9.344;2022-08-03T03:40:48;6.10;;;4.93;;
46363;SDS011;32071;49.036;9.344;2022-08-03T03:43:14;5.20;;;4.80;;
46363;SDS011;32071;49.036;9.344;2022-08-03T03:45:40;4.57;;;4.17;;
46363;SDS011;32071;49.036;9.344;2022-08-03T03:48:06;4.73;;;4.23;;
46363;SDS011;32071;49.036;9.344;2022-08-03T03:50:33;5.40;;;4.83;;
46363;SDS011;32071;49.036;9.344;2022-08-03T03:53:01;5.30;;;4.80;;
46363;SDS011;32071;49.036;9.344;2022-08-03T03:55:27;5.60;;;5.10;;
46363;SDS011;32071;49.036;9.344;2022-08-03T03:57:53;5.63;;;4.77;;
46363;SDS011;32071;49.036;9.344;2022-08-03T04:00:19;5.17;;;4.57;;
46363;SDS011;32071;49.036;9.344;2022-08-03T04:02:44;5.60;;;5.10;;
46363;SDS011;32071;49.036;9.344;2022-08-03T04:05:10;5.73;;;4.63;;
46363;SDS011;32071;49.036;9.344;2022-08-03T04:08:08;5.53;;;4.87;;
46363;SDS011;32071;49.036;9.344;2022-08-03T04:13:56;5.23;;;4.50;;
46363;SDS011;32071;49.036;9.344;2022-08-03T04:16:34;5.13;;;4.63;;
46363;SDS011;32071;49.036;9.344;2022-08-03T04:19:49;4.87;;;4.47;;
46363;SDS011;32071;49.036;9.344;2022-08-03T04:21:54;5.00;;;4.50;;
46363;SDS011;32071;49.036;9.344;2022-08-03T04:24:25;4.80;;;4.40;;
46363;SDS011;32071;49.036;9.344;2022-08-03T04:26:56;5.13;;;4.73;;
46363;SDS011;32071;49.036;9.344;2022-08-03T04:29:24;5.50;;;4.77;;
46363;SDS011;32071;49.036;9.344;2022-08-03T04:31:53;5.17;;;4.73;;
46363;SDS011;32071;49.036;9.344;2022-08-03T04:34:21;5.30;;;4.80;;
46363;SDS011;32071;49.036;9.344;2022-08-03T04:36:47;5.03;;;4.53;;
46363;SDS011;32071;49.036;9.344;2022-08-03T04:39:18;4.70;;;4.30;;
46363;SDS011;32071;49.036;9.344;2022-08-03T04:41:52;5.30;;;4.80;;
46363;SDS011;32071;49.036;9.344;2022-08-03T04:44:22;4.83;;;4.43;;
46363;SDS011;32071;49.036;9.344;2022-08-03T04:46:51;5.43;;;4.87;;
46363;SDS011;32071;49.036;9.344;2022-08-03T04:49:17;5.80;;;4.87;;
46363;SDS011;32071;49.036;9.344;2022-08-03T04:51:44;7.57;;;5.10;;
46363;SDS011;32071;49.036;9.344;2022-08-03T04:54:11;5.57;;;4.73;;
46363;SDS011;32071;49.036;9.344;2022-08-03T04:56:41;6.30;;;5.13;;
46363;SDS011;32071;49.036;9.344;2022-08-03T04:59:10;5.63;;;5.10;;
46363;SDS011;32071;49.036;9.344;2022-08-03T05:01:36;5.57;;;5.03;;
46363;SDS011;32071;49.036;9.344;2022-08-03T05:04:03;5.00;;;4.60;;
46363;SDS011;32071;49.036;9.344;2022-08-03T05:06:29;4.77;;;4.33;;
46363;SDS011;32071;49.036;9.344;2022-08-03T05:08:54;5.17;;;4.67;;
46363;SDS011;32071;49.036;9.344;2022-08-03T05:11:20;4.90;;;4.43;;
46363;SDS011;32071;49.036;9.344;2022-08-03T05:13:46;5.20;;;4.70;;
46363;SDS011;32071;49.036;9.344;2022-08-03T05:16:12;5.20;;;4.80;;
46363;SDS011;32071;49.036;9.344;2022-08-03T05:18:39;5.23;;;4.73;;
46363;SDS011;32071;49.036;9.344;2022-08-03T05:21:06;5.30;;;4.80;;
46363;SDS011;32071;49.036;9.344;2022-08-03T05:23:31;5.20;;;4.80;;
46363;SDS011;32071;49.036;9.344;2022-08-03T05:25:57;6.93;;;4.80;;
46363;SDS011;32071;49.036;9.344;2022-08-03T05:28:23;4.63;;;4.23;;
46363;SDS011;32071;49.036;9.344;2022-08-03T05:30:49;8.40;;;4.80;;
46363;SDS011;32071;49.036;9.344;2022-08-03T05:33:14;4.90;;;4.47;;
46363;SDS011;32071;49.036;9.344;2022-08-03T05:35:40;6.20;;;4.70;;
46363;SDS011;32071;49.036;9.344;2022-08-03T05:38:06;5.20;;;4.70;;
46363;SDS011;32071;49.036;9.344;2022-08-03T05:40:31;4.87;;;4.47;;
46363;SDS011;32071;49.036;9.344;2022-08-03T05:42:57;4.40;;;4.03;;
46363;SDS011;32071;49.036;9.344;2022-08-03T05:45:23;5.30;;;4.90;;
46363;SDS011;32071;49.036;9.344;2022-08-03T05:47:49;5.43;;;5.03;;
46363;SDS011;32071;49.036;9.344;2022-08-03T05:50:16;5.07;;;4.60;;
46363;SDS011;32071;49.036;9.344;2022-08-03T05:52:42;5.63;;;5.13;;
46363;SDS011;32071;49.036;9.344;2022-08-03T05:55:08;5.67;;;5.17;;
46363;SDS011;32071;49.036;9.344;2022-08-03T05:57:35;5.93;;;5.43;;
46363;SDS011;32071;49.036;9.344;2022-08-03T06:00:03;5.63;;;4.77;;
46363;SDS011;32071;49.036;9.344;2022-08-03T06:02:30;6.03;;;4.90;;
46363;SDS011;32071;49.036;9.344;2022-08-03T06:04:56;6.50;;;5.43;;
46363;SDS011;32071;49.036;9.344;2022-08-03T06:07:21;7.83;;;5.87;;
46363;SDS011;32071;49.036;9.344;2022-08-03T06:09:47;6.57;;;5.10;;
46363;SDS011;32071;49.036;9.344;2022-08-03T06:12:12;6.43;;;5.20;;
46363;SDS011;32071;49.036;9.344;2022-08-03T06:14:38;6.03;;;5.10;;
46363;SDS011;32071;49.036;9.344;2022-08-03T06:17:03;6.30;;;5.00;;
46363;SDS011;32071;49.036;9.344;2022-08-03T06:19:29;5.80;;;5.30;;
46363;SDS011;32071;49.036;9.344;2022-08-03T06:21:54;5.77;;;5.27;;
46363;SDS011;32071;49.036;9.344;2022-08-03T06:24:20;5.93;;;4.60;;
46363;SDS011;32071;49.036;9.344;2022-08-03T06:26:45;5.80;;;4.87;;
46363;SDS011;32071;49.036;9.344;2022-08-03T06:29:11;5.10;;;4.70;;
46363;SDS011;32071;49.036;9.344;2022-08-03T06:31:37;4.83;;;4.40;;
46363;SDS011;32071;49.036;9.344;2022-08-03T06:34:03;6.83;;;5.00;;
46363;SDS011;32071;49.036;9.344;2022-08-03T06:36:30;5.40;;;4.90;;
46363;SDS011;32071;49.036;9.344;2022-08-03T06:38:59;5.83;;;5.33;;
46363;SDS011;32071;49.036;9.344;2022-08-03T06:41:25;5.67;;;5.17;;
46363;SDS011;32071;49.036;9.344;2022-08-03T06:43:51;6.60;;;6.00;;
46363;SDS011;32071;49.036;9.344;2022-08-03T06:46:16;6.30;;;5.70;;
46363;SDS011;32071;49.036;9.344;2022-08-03T06:48:42;6.57;;;5.83;;
46363;SDS011;32071;49.036;9.344;2022-08-03T06:51:08;6.60;;;6.00;;
46363;SDS011;32071;49.036;9.344;2022-08-03T06:53:34;10.97;;;6.33;;
46363;SDS011;32071;49.036;9.344;2022-08-03T06:56:00;6.70;;;6.10;;
46363;SDS011;32071;49.036;9.344;2022-08-03T06:58:25;7.00;;;5.97;;
46363;SDS011;32071;49.036;9.344;2022-08-03T07:00:51;11.57;;;6.90;;
46363;SDS011;32071;49.036;9.344;2022-08-03T07:03:17;7.17;;;5.73;;
46363;SDS011;32071;49.036;9.344;2022-08-03T07:05:43;6.93;;;6.23;;
46363;SDS011;32071;49.036;9.344;2022-08-03T07:08:11;6.27;;;5.70;;
46363;SDS011;32071;49.036;9.344;2022-08-03T07:10:37;6.40;;;5.90;;
46363;SDS011;32071;49.036;9.344;2022-08-03T07:13:03;9.93;;;5.83;;
46363;SDS011;32071;49.036;9.344;2022-08-03T07:15:29;6.43;;;5.83;;
46363;SDS011;32071;49.036;9.344;2022-08-03T07:17:55;7.17;;;6.50;;
46363;SDS011;32071;49.036;9.344;2022-08-03T07:20:20;7.23;;;6.53;;
46363;SDS011;32071;49.036;9.344;2022-08-03T07:22:46;6.50;;;5.87;;
46363;SDS011;32071;49.036;9.344;2022-08-03T07:25:12;6.30;;;5.53;;
46363;SDS011;32071;49.036;9.344;2022-08-03T07:27:41;5.77;;;5.37;;
46363;SDS011;32071;49.036;9.344;2022-08-03T07:30:07;9.80;;;5.93;;
46363;SDS011;32071;49.036;9.344;2022-08-03T07:32:33;5.90;;;5.27;;
46363;SDS011;32071;49.036;9.344;2022-08-03T07:34:59;6.73;;;6.10;;
46363;SDS011;32071;49.036;9.344;2022-08-03T07:37:25;6.90;;;6.10;;
46363;SDS011;32071;49.036;9.344;2022-08-03T07:39:50;6.00;;;5.50;;
46363;SDS011;32071;49.036;9.344;2022-08-03T07:42:16;6.23;;;5.63;;
46363;SDS011;32071;49.036;9.344;2022-08-03T07:44:42;9.17;;;5.97;;
46363;SDS011;32071;49.036;9.344;2022-08-03T07:47:07;6.83;;;5.00;;
46363;SDS011;32071;49.036;9.344;2022-08-03T07:49:37;5.70;;;5.20;;
46363;SDS011;32071;49.036;9.344;2022-08-03T07:52:03;6.27;;;4.70;;
46363;SDS011;32071;49.036;9.344;2022-08-03T07:54:48;5.70;;;5.20;;
46363;SDS011;32071;49.036;9.344;2022-08-03T07:57:13;5.50;;;4.87;;
46363;SDS011;32071;49.036;9.344;2022-08-03T07:59:39;5.90;;;4.50;;
46363;SDS011;32071;49.036;9.344;2022-08-03T08:02:05;4.90;;;4.40;;
46363;SDS011;32071;49.036;9.344;2022-08-03T08:04:31;4.83;;;4.43;;
46363;SDS011;32071;49.036;9.344;2022-08-03T08:06:56;7.70;;;4.00;;
46363;SDS011;32071;49.036;9.344;2022-08-03T08:09:22;4.40;;;4.10;;
46363;SDS011;32071;49.036;9.344;2022-08-03T08:11:48;4.80;;;4.20;;
46363;SDS011;32071;49.036;9.344;2022-08-03T08:14:13;4.30;;;4.00;;
46363;SDS011;32071;49.036;9.344;2022-08-03T08:16:39;3.77;;;3.47;;
46363;SDS011;32071;49.036;9.344;2022-08-03T08:19:05;3.37;;;3.07;;
46363;SDS011;32071;49.036;9.344;2022-08-03T08:21:30;3.93;;;3.63;;
46363;SDS011;32071;49.036;9.344;2022-08-03T08:23:56;7.90;;;3.57;;
46363;SDS011;32071;49.036;9.344;2022-08-03T08:26:21;5.27;;;3.77;;
46363;SDS011;32071;49.036;9.344;2022-08-03T08:28:47;6.33;;;3.90;;
46363;SDS011;32071;49.036;9.344;2022-08-03T08:31:13;3.80;;;3.50;;
46363;SDS011;32071;49.036;9.344;2022-08-03T08:33:38;3.87;;;3.57;;
46363;SDS011;32071;49.036;9.344;2022-08-03T08:36:04;4.00;;;3.60;;
46363;SDS011;32071;49.036;9.344;2022-08-03T08:38:29;3.53;;;3.33;;
46363;SDS011;32071;49.036;9.344;2022-08-03T08:40:55;3.73;;;3.43;;
46363;SDS011;32071;49.036;9.344;2022-08-03T08:43:21;3.70;;;3.40;;
46363;SDS011;32071;49.036;9.344;2022-08-03T08:45:48;4.30;;;3.90;;
46363;SDS011;32071;49.036;9.344;2022-08-03T08:48:14;3.17;;;2.97;;
46363;SDS011;32071;49.036;9.344;2022-08-03T08:50:45;3.23;;;3.03;;
46363;SDS011;32071;49.036;9.344;2022-08-03T08:53:12;3.43;;;3.23;;
46363;SDS011;32071;49.036;9.344;2022-08-03T08:55:38;3.60;;;3.30;;
46363;SDS011;32071;49.036;9.344;2022-08-03T08:58:04;3.27;;;3.07;;
46363;SDS011;32071;49.036;9.344;2022-08-03T09:00:33;4.20;;;3.03;;
46363;SDS011;32071;49.036;9.344;2022-08-03T09:02:59;4.40;;;3.10;;
46363;SDS011;32071;49.036;9.344;2022-08-03T09:05:25;3.87;;;3.07;;
46363;SDS011;32071;49.036;9.344;2022-08-03T09:07:51;3.60;;;3.33;;
46363;SDS011;32071;49.036;9.344;2022-08-03T09:10:17;3.27;;;3.07;;
46363;SDS011;32071;49.036;9.344;2022-08-03T09:12:47;3.83;;;2.10;;
46363;SDS011;32071;49.036;9.344;2022-08-03T09:15:27;3.13;;;2.93;;
46363;SDS011;32071;49.036;9.344;2022-08-03T09:17:58;3.77;;;3.23;;
46363;SDS011;32071;49.036;9.344;2022-08-03T09:20:27;3.07;;;2.73;;
46363;SDS011;32071;49.036;9.344;2022-08-03T09:28:13;5.00;;;3.40;;
46363;SDS011;32071;49.036;9.344;2022-08-03T09:30:44;15.43;;;3.87;;
46363;SDS011;32071;49.036;9.344;2022-08-03T09:33:21;3.33;;;3.13;;
46363;SDS011;32071;49.036;9.344;2022-08-03T09:35:47;8.47;;;3.37;;
46363;SDS011;32071;49.036;9.344;2022-08-03T09:38:21;3.50;;;3.30;;
46363;SDS011;32071;49.036;9.344;2022-08-03T09:40:49;3.03;;;2.83;;
46363;SDS011;32071;49.036;9.344;2022-08-03T09:43:16;3.27;;;2.80;;
46363;SDS011;32071;49.036;9.344;2022-08-03T09:45:42;3.47;;;3.27;;
46363;SDS011;32071;49.036;9.344;2022-08-03T09:50:48;3.30;;;3.10;;
46363;SDS011;32071;49.036;9.344;2022-08-03T09:53:13;2.87;;;2.67;;
46363;SDS011;32071;49.036;9.344;2022-08-03T09:55:47;3.77;;;2.50;;
46363;SDS011;32071;49.036;9.344;2022-08-03T09:58:25;3.50;;;3.07;;
46363;SDS011;32071;49.036;9.344;2022-08-03T10:03:29;2.90;;;2.70;;
46363;SDS011;32071;49.036;9.344;2022-08-03T10:05:57;4.47;;;2.70;;
46363;SDS011;32071;49.036;9.344;2022-08-03T10:08:23;3.00;;;2.60;;
46363;SDS011;32071;49.036;9.344;2022-08-03T10:10:50;2.90;;;2.70;;
46363;SDS011;32071;49.036;9.344;2022-08-03T10:13:19;3.40;;;2.70;;
46363;SDS011;32071;49.036;9.344;2022-08-03T10:15:46;3.07;;;2.87;;
46363;SDS011;32071;49.036;9.344;2022-08-03T10:18:12;2.90;;;2.53;;
46363;SDS011;32071;49.036;9.344;2022-08-03T10:20:45;3.43;;;3.13;;
46363;SDS011;32071;49.036;9.344;2022-08-03T10:23:16;3.40;;;3.20;;
46363;SDS011;32071;49.036;9.344;2022-08-03T10:25:42;3.03;;;2.40;;
46363;SDS011;32071;49.036;9.344;2022-08-03T10:28:11;3.17;;;2.97;;
46363;SDS011;32071;49.036;9.344;2022-08-03T10:30:40;3.40;;;2.80;;
46363;SDS011;32071;49.036;9.344;2022-08-03T10:33:12;3.20;;;2.87;;
46363;SDS011;32071;49.036;9.344;2022-08-03T10:35:41;3.67;;;3.40;;
46363;SDS011;32071;49.036;9.344;2022-08-03T10:38:15;4.77;;;2.83;;
46363;SDS011;32071;49.036;9.344;2022-08-03T10:40:44;2.93;;;2.73;;
46363;SDS011;32071;49.036;9.344;2022-08-03T10:43:21;3.13;;;2.93;;
46363;SDS011;32071;49.036;9.344;2022-08-03T10:45:51;2.97;;;2.77;;
46363;SDS011;32071;49.036;9.344;2022-08-03T10:48:17;2.97;;;2.77;;
46363;SDS011;32071;49.036;9.344;2022-08-03T10:50:45;3.03;;;2.83;;
46363;SDS011;32071;49.036;9.344;2022-08-03T10:53:12;2.90;;;2.70;;
46363;SDS011;32071;49.036;9.344;2022-08-03T10:55:42;3.20;;;3.00;;
46363;SDS011;32071;49.036;9.344;2022-08-03T11:01:05;2.87;;;2.67;;
46363;SDS011;32071;49.036;9.344;2022-08-03T11:03:32;2.93;;;2.77;;
46363;SDS011;32071;49.036;9.344;2022-08-03T11:06:14;3.90;;;3.60;;
46363;SDS011;32071;49.036;9.344;2022-08-03T11:08:44;3.00;;;2.80;;
46363;SDS011;32071;49.036;9.344;2022-08-03T11:16:21;3.20;;;3.00;;
46363;SDS011;32071;49.036;9.344;2022-08-03T11:19:01;3.20;;;3.00;;
46363;SDS011;32071;49.036;9.344;2022-08-03T11:29:52;3.20;;;3.00;;
46363;SDS011;32071;49.036;9.344;2022-08-03T11:35:10;2.57;;;2.37;;
46363;SDS011;32071;49.036;9.344;2022-08-03T11:48:37;3.30;;;3.00;;
46363;SDS011;32071;49.036;9.344;2022-08-03T11:51:05;3.23;;;3.03;;
46363;SDS011;32071;49.036;9.344;2022-08-03T11:53:32;7.10;;;3.10;;
46363;SDS011;32071;49.036;9.344;2022-08-03T11:56:00;3.07;;;2.87;;
46363;SDS011;32071;49.036;9.344;2022-08-03T11:58:26;4.50;;;3.00;;
46363;SDS011;32071;49.036;9.344;2022-08-03T12:01:02;3.40;;;3.10;;
46363;SDS011;32071;49.036;9.344;2022-08-03T12:03:30;6.07;;;3.37;;
46363;SDS011;32071;49.036;9.344;2022-08-03T12:05:58;3.20;;;3.00;;
46363;SDS011;32071;49.036;9.344;2022-08-03T12:08:29;2.93;;;2.73;;
46363;SDS011;32071;49.036;9.344;2022-08-03T12:10:56;3.50;;;3.30;;
46363;SDS011;32071;49.036;9.344;2022-08-03T12:13:24;3.00;;;2.77;;
46363;SDS011;32071;49.036;9.344;2022-08-03T12:15:54;3.13;;;2.83;;
46363;SDS011;32071;49.036;9.344;2022-08-03T12:18:23;3.60;;;3.30;;
46363;SDS011;32071;49.036;9.344;2022-08-03T12:20:49;3.10;;;2.90;;
46363;SDS011;32071;49.036;9.344;2022-08-03T12:23:17;3.20;;;2.90;;
46363;SDS011;32071;49.036;9.344;2022-08-03T12:25:44;3.47;;;3.17;;
46363;SDS011;32071;49.036;9.344;2022-08-03T12:30:44;3.23;;;3.03;;
46363;SDS011;32071;49.036;9.344;2022-08-03T12:33:16;3.40;;;3.20;;
46363;SDS011;32071;49.036;9.344;2022-08-03T12:35:44;3.07;;;2.87;;
46363;SDS011;32071;49.036;9.344;2022-08-03T12:38:11;2.97;;;2.77;;
46363;SDS011;32071;49.036;9.344;2022-08-03T12:40:38;3.30;;;3.10;;
46363;SDS011;32071;49.036;9.344;2022-08-03T12:43:12;4.40;;;2.77;;
46363;SDS011;32071;49.036;9.344;2022-08-03T12:45:38;2.73;;;2.53;;
46363;SDS011;32071;49.036;9.344;2022-08-03T12:48:06;2.93;;;2.73;;
46363;SDS011;32071;49.036;9.344;2022-08-03T12:50:35;2.73;;;2.60;;
46363;SDS011;32071;49.036;9.344;2022-08-03T12:53:02;2.80;;;2.67;;
46363;SDS011;32071;49.036;9.344;2022-08-03T12:55:29;3.00;;;2.80;;
46363;SDS011;32071;49.036;9.344;2022-08-03T12:58:02;3.50;;;3.27;;
46363;SDS011;32071;49.036;9.344;2022-08-03T13:00:29;3.60;;;3.30;;
46363;SDS011;32071;49.036;9.344;2022-08-03T13:02:58;3.23;;;3.03;;
46363;SDS011;32071;49.036;9.344;2022-08-03T13:05:25;3.10;;;2.90;;
46363;SDS011;32071;49.036;9.344;2022-08-03T13:07:50;2.80;;;2.70;;
46363;SDS011;32071;49.036;9.344;2022-08-03T13:10:26;3.23;;;2.93;;
46363;SDS011;32071;49.036;9.344;2022-08-03T13:12:56;2.97;;;2.77;;
46363;SDS011;32071;49.036;9.344;2022-08-03T13:15:24;3.07;;;2.73;;
46363;SDS011;32071;49.036;9.344;2022-08-03T13:17:52;2.93;;;2.83;;
46363;SDS011;32071;49.036;9.344;2022-08-03T13:20:18;3.10;;;2.90;;
46363;SDS011;32071;49.036;9.344;2022-08-03T13:22:45;3.67;;;3.33;;
46363;SDS011;32071;49.036;9.344;2022-08-03T13:25:11;3.47;;;3.27;;
46363;SDS011;32071;49.036;9.344;2022-08-03T13:27:37;3.07;;;2.80;;
46363;SDS011;32071;49.036;9.344;2022-08-03T13:30:03;3.20;;;2.93;;
46363;SDS011;32071;49.036;9.344;2022-08-03T13:32:29;3.10;;;2.90;;
46363;SDS011;32071;49.036;9.344;2022-08-03T13:34:55;3.53;;;3.23;;
46363;SDS011;32071;49.036;9.344;2022-08-03T13:37:21;3.00;;;2.80;;
46363;SDS011;32071;49.036;9.344;2022-08-03T13:39:46;3.40;;;3.20;;
46363;SDS011;32071;49.036;9.344;2022-08-03T13:42:12;3.20;;;3.00;;
46363;SDS011;32071;49.036;9.344;2022-08-03T13:44:37;3.40;;;3.20;;
46363;SDS011;32071;49.036;9.344;2022-08-03T13:47:03;2.93;;;2.80;;
46363;SDS011;32071;49.036;9.344;2022-08-03T13:49:29;3.10;;;2.90;;
46363;SDS011;32071;49.036;9.344;2022-08-03T13:51:55;3.30;;;3.00;;
46363;SDS011;32071;49.036;9.344;2022-08-03T13:54:21;2.70;;;2.60;;
46363;SDS011;32071;49.036;9.344;2022-08-03T13:56:46;3.13;;;2.83;;
46363;SDS011;32071;49.036;9.344;2022-08-03T13:59:18;3.40;;;3.20;;
46363;SDS011;32071;49.036;9.344;2022-08-03T14:01:48;3.67;;;3.20;;
46363;SDS011;32071;49.036;9.344;2022-08-03T14:04:14;2.67;;;2.57;;
46363;SDS011;32071;49.036;9.344;2022-08-03T14:06:40;3.07;;;2.87;;
46363;SDS011;32071;49.036;9.344;2022-08-03T14:09:09;3.50;;;3.20;;
46363;SDS011;32071;49.036;9.344;2022-08-03T14:11:35;2.87;;;2.77;;
46363;SDS011;32071;49.036;9.344;2022-08-03T14:14:00;3.33;;;3.03;;
46363;SDS011;32071;49.036;9.344;2022-08-03T14:16:26;3.13;;;2.80;;
46363;SDS011;32071;49.036;9.344;2022-08-03T14:18:51;3.03;;;2.83;;
46363;SDS011;32071;49.036;9.344;2022-08-03T14:21:17;3.87;;;3.57;;
46363;SDS011;32071;49.036;9.344;2022-08-03T14:23:42;3.00;;;2.80;;
46363;SDS011;32071;49.036;9.344;2022-08-03T14:26:08;3.50;;;3.30;;
46363;SDS011;32071;49.036;9.344;2022-08-03T14:28:34;3.57;;;3.27;;
46363;SDS011;32071;49.036;9.344;2022-08-03T14:31:00;3.10;;;2.90;;
46363;SDS011;32071;49.036;9.344;2022-08-03T14:33:26;3.50;;;3.30;;
46363;SDS011;32071;49.036;9.344;2022-08-03T14:35:55;3.67;;;3.10;;
46363;SDS011;32071;49.036;9.344;2022-08-03T14:38:21;3.23;;;3.03;;
46363;SDS011;32071;49.036;9.344;2022-08-03T14:40:47;3.10;;;3.00;;
46363;SDS011;32071;49.036;9.344;2022-08-03T14:43:13;3.30;;;3.20;;
46363;SDS011;32071;49.036;9.344;2022-08-03T14:45:41;3.10;;;2.90;;
46363;SDS011;32071;49.036;9.344;2022-08-03T14:48:07;3.08;;;2.88;;
46363;SDS011;32071;49.036;9.344;2022-08-03T14:50:32;3.10;;;3.00;;
46363;SDS011;32071;49.036;9.344;2022-08-03T14:52:58;3.30;;;3.05;;
46363;SDS011;32071;49.036;9.344;2022-08-03T14:55:24;3.35;;;3.08;;
46363;SDS011;32071;49.036;9.344;2022-08-03T14:57:49;3.15;;;3.05;;
46363;SDS011;32071;49.036;9.344;2022-08-03T15:00:15;8.50;;;3.30;;
46363;SDS011;32071;49.036;9.344;2022-08-03T15:02:40;3.38;;;3.13;;
46363;SDS011;32071;49.036;9.344;2022-08-03T15:05:06;2.97;;;2.88;;
46363;SDS011;32071;49.036;9.344;2022-08-03T15:07:32;3.72;;;2.70;;
46363;SDS011;32071;49.036;9.344;2022-08-03T15:09:58;4.13;;;3.00;;
46363;SDS011;32071;49.036;9.344;2022-08-03T15:12:24;2.75;;;2.65;;
46363;SDS011;32071;49.036;9.344;2022-08-03T15:14:50;3.00;;;2.80;;
46363;SDS011;32071;49.036;9.344;2022-08-03T15:17:16;3.30;;;3.10;;
46363;SDS011;32071;49.036;9.344;2022-08-03T15:19:42;3.80;;;3.40;;
46363;SDS011;32071;49.036;9.344;2022-08-03T15:22:08;4.43;;;3.20;;
46363;SDS011;32071;49.036;9.344;2022-08-03T15:24:33;3.30;;;2.97;;
46363;SDS011;32071;49.036;9.344;2022-08-03T15:26:59;3.00;;;2.80;;
46363;SDS011;32071;49.036;9.344;2022-08-03T15:29:24;4.40;;;3.40;;
46363;SDS011;32071;49.036;9.344;2022-08-03T15:31:50;2.63;;;2.53;;
46363;SDS011;32071;49.036;9.344;2022-08-03T15:34:16;3.42;;;3.13;;
46363;SDS011;32071;49.036;9.344;2022-08-03T15:36:42;3.38;;;3.10;;
46363;SDS011;32071;49.036;9.344;2022-08-03T15:39:08;4.63;;;3.10;;
46363;SDS011;32071;49.036;9.344;2022-08-03T15:41:33;3.65;;;3.25;;
46363;SDS011;32071;49.036;9.344;2022-08-03T15:43:59;2.88;;;2.78;;